sensor_id;sensor_type;location;lat;lon;timestamp;P1;durP1;ratioP1;P2;durP2;ratioP2
17794;SDS011;9021;50.882;4.326;2022-10-16T00:01:34;2.75;;;0.77;;
17794;SDS011;9021;50.882;4.326;2022-10-16T00:04:00;3.25;;;0.70;;
17794;SDS011;9021;50.882;4.326;2022-10-16T00:06:26;1.02;;;0.47;;
17794;SDS011;9021;50.882;4.326;2022-10-16T00:08:53;0.68;;;0.50;;
17794;SDS011;9021;50.882;4.326;2022-10-16T00:13:56;1.23;;;0.60;;
17794;SDS011;9021;50.882;4.326;2022-10-16T00:16:26;3.53;;;0.57;;
17794;SDS011;9021;50.882;4.326;2022-10-16T00:18:53;3.42;;;1.00;;
17794;SDS011;9021;50.882;4.326;2022-10-16T00:21:20;1.95;;;0.60;;
17794;SDS011;9021;50.882;4.326;2022-10-16T00:23:55;0.85;;;0.50;;
17794;SDS011;9021;50.882;4.326;2022-10-16T00:26:25;0.88;;;0.50;;
17794;SDS011;9021;50.882;4.326;2022-10-16T00:28:53;1.77;;;0.50;;
17794;SDS011;9021;50.882;4.326;2022-10-16T00:31:19;1.33;;;0.60;;
17794;SDS011;9021;50.882;4.326;2022-10-16T00:33:46;0.88;;;0.50;;
17794;SDS011;9021;50.882;4.326;2022-10-16T00:36:12;2.83;;;0.63;;
17794;SDS011;9021;50.882;4.326;2022-10-16T00:38:39;1.90;;;0.60;;
17794;SDS011;9021;50.882;4.326;2022-10-16T00:41:06;1.23;;;0.52;;
17794;SDS011;9021;50.882;4.326;2022-10-16T00:43:45;2.30;;;0.60;;
17794;SDS011;9021;50.882;4.326;2022-10-16T00:48:48;2.42;;;0.68;;
17794;SDS011;9021;50.882;4.326;2022-10-16T00:51:34;1.17;;;0.70;;
17794;SDS011;9021;50.882;4.326;2022-10-16T00:54:09;1.33;;;0.70;;
17794;SDS011;9021;50.882;4.326;2022-10-16T00:56:41;1.08;;;0.60;;
17794;SDS011;9021;50.882;4.326;2022-10-16T00:59:14;1.92;;;0.70;;
17794;SDS011;9021;50.882;4.326;2022-10-16T01:01:43;4.63;;;0.80;;
17794;SDS011;9021;50.882;4.326;2022-10-16T01:04:08;1.42;;;0.60;;
17794;SDS011;9021;50.882;4.326;2022-10-16T01:06:43;5.97;;;1.00;;
17794;SDS011;9021;50.882;4.326;2022-10-16T01:14:26;1.08;;;0.77;;
17794;SDS011;9021;50.882;4.326;2022-10-16T01:17:16;2.03;;;0.95;;
17794;SDS011;9021;50.882;4.326;2022-10-16T01:23:19;3.28;;;0.77;;
17794;SDS011;9021;50.882;4.326;2022-10-16T01:25:54;2.08;;;1.05;;
17794;SDS011;9021;50.882;4.326;2022-10-16T01:28:17;2.78;;;0.90;;
17794;SDS011;9021;50.882;4.326;2022-10-16T01:30:49;2.50;;;1.08;;
17794;SDS011;9021;50.882;4.326;2022-10-16T01:33:20;3.05;;;0.68;;
17794;SDS011;9021;50.882;4.326;2022-10-16T01:35:53;1.70;;;0.73;;
17794;SDS011;9021;50.882;4.326;2022-10-16T01:40:58;3.38;;;1.00;;
17794;SDS011;9021;50.882;4.326;2022-10-16T01:43:31;2.88;;;0.90;;
17794;SDS011;9021;50.882;4.326;2022-10-16T01:46:02;2.10;;;0.82;;
17794;SDS011;9021;50.882;4.326;2022-10-16T01:48:28;1.83;;;1.10;;
17794;SDS011;9021;50.882;4.326;2022-10-16T01:51:00;1.33;;;0.90;;
17794;SDS011;9021;50.882;4.326;2022-10-16T01:53:35;1.95;;;0.88;;
17794;SDS011;9021;50.882;4.326;2022-10-16T01:56:02;1.67;;;0.85;;
17794;SDS011;9021;50.882;4.326;2022-10-16T01:58:30;2.55;;;1.00;;
17794;SDS011;9021;50.882;4.326;2022-10-16T02:01:00;3.53;;;0.95;;
17794;SDS011;9021;50.882;4.326;2022-10-16T02:03:28;1.27;;;1.08;;
17794;SDS011;9021;50.882;4.326;2022-10-16T02:05:54;2.10;;;0.90;;
17794;SDS011;9021;50.882;4.326;2022-10-16T02:08:22;1.45;;;0.80;;
17794;SDS011;9021;50.882;4.326;2022-10-16T02:10:53;1.10;;;1.00;;
17794;SDS011;9021;50.882;4.326;2022-10-16T02:13:28;2.63;;;0.80;;
17794;SDS011;9021;50.882;4.326;2022-10-16T02:16:02;5.05;;;1.00;;
17794;SDS011;9021;50.882;4.326;2022-10-16T02:18:28;6.00;;;1.10;;
17794;SDS011;9021;50.882;4.326;2022-10-16T02:20:59;2.78;;;1.00;;
17794;SDS011;9021;50.882;4.326;2022-10-16T02:26:07;1.08;;;0.90;;
17794;SDS011;9021;50.882;4.326;2022-10-16T02:28:42;2.10;;;0.90;;
17794;SDS011;9021;50.882;4.326;2022-10-16T02:31:13;1.90;;;1.10;;
17794;SDS011;9021;50.882;4.326;2022-10-16T02:33:43;2.88;;;1.00;;
17794;SDS011;9021;50.882;4.326;2022-10-16T02:36:11;3.83;;;1.00;;
17794;SDS011;9021;50.882;4.326;2022-10-16T02:38:37;6.28;;;1.52;;
17794;SDS011;9021;50.882;4.326;2022-10-16T02:41:04;1.63;;;0.95;;
17794;SDS011;9021;50.882;4.326;2022-10-16T02:43:31;2.47;;;1.10;;
17794;SDS011;9021;50.882;4.326;2022-10-16T02:45:58;2.63;;;0.98;;
17794;SDS011;9021;50.882;4.326;2022-10-16T02:48:24;2.53;;;1.00;;
17794;SDS011;9021;50.882;4.326;2022-10-16T02:50:50;1.83;;;1.00;;
17794;SDS011;9021;50.882;4.326;2022-10-16T02:53:16;3.05;;;1.10;;
17794;SDS011;9021;50.882;4.326;2022-10-16T02:55:41;1.70;;;0.90;;
17794;SDS011;9021;50.882;4.326;2022-10-16T02:58:07;3.13;;;1.10;;
17794;SDS011;9021;50.882;4.326;2022-10-16T03:00:33;2.88;;;1.20;;
17794;SDS011;9021;50.882;4.326;2022-10-16T03:02:58;5.90;;;1.27;;
17794;SDS011;9021;50.882;4.326;2022-10-16T03:05:24;3.55;;;1.17;;
17794;SDS011;9021;50.882;4.326;2022-10-16T03:07:50;2.05;;;0.98;;
17794;SDS011;9021;50.882;4.326;2022-10-16T03:10:17;2.88;;;1.38;;
17794;SDS011;9021;50.882;4.326;2022-10-16T03:12:43;1.52;;;1.00;;
17794;SDS011;9021;50.882;4.326;2022-10-16T03:15:08;2.05;;;0.80;;
17794;SDS011;9021;50.882;4.326;2022-10-16T03:17:34;2.38;;;1.17;;
17794;SDS011;9021;50.882;4.326;2022-10-16T03:20:00;1.27;;;1.17;;
17794;SDS011;9021;50.882;4.326;2022-10-16T03:22:26;4.53;;;1.33;;
17794;SDS011;9021;50.882;4.326;2022-10-16T03:24:51;4.00;;;1.90;;
17794;SDS011;9021;50.882;4.326;2022-10-16T03:27:17;2.85;;;1.20;;
17794;SDS011;9021;50.882;4.326;2022-10-16T03:29:45;2.30;;;0.95;;
17794;SDS011;9021;50.882;4.326;2022-10-16T03:32:11;3.33;;;1.15;;
17794;SDS011;9021;50.882;4.326;2022-10-16T03:34:36;4.70;;;1.40;;
17794;SDS011;9021;50.882;4.326;2022-10-16T03:37:02;3.78;;;1.15;;
17794;SDS011;9021;50.882;4.326;2022-10-16T03:39:27;6.68;;;1.25;;
17794;SDS011;9021;50.882;4.326;2022-10-16T03:41:53;3.58;;;1.40;;
17794;SDS011;9021;50.882;4.326;2022-10-16T03:44:19;5.07;;;1.17;;
17794;SDS011;9021;50.882;4.326;2022-10-16T03:46:44;2.25;;;1.00;;
17794;SDS011;9021;50.882;4.326;2022-10-16T03:49:10;1.52;;;1.20;;
17794;SDS011;9021;50.882;4.326;2022-10-16T03:51:35;2.72;;;1.30;;
17794;SDS011;9021;50.882;4.326;2022-10-16T03:54:01;2.22;;;1.30;;
17794;SDS011;9021;50.882;4.326;2022-10-16T03:56:27;2.05;;;1.10;;
17794;SDS011;9021;50.882;4.326;2022-10-16T03:58:52;3.92;;;1.42;;
17794;SDS011;9021;50.882;4.326;2022-10-16T04:01:18;4.97;;;1.60;;
17794;SDS011;9021;50.882;4.326;2022-10-16T04:03:44;1.95;;;1.40;;
17794;SDS011;9021;50.882;4.326;2022-10-16T04:06:09;3.72;;;1.25;;
17794;SDS011;9021;50.882;4.326;2022-10-16T04:08:35;3.00;;;1.60;;
17794;SDS011;9021;50.882;4.326;2022-10-16T04:11:02;3.55;;;1.40;;
17794;SDS011;9021;50.882;4.326;2022-10-16T04:13:28;3.47;;;1.15;;
17794;SDS011;9021;50.882;4.326;2022-10-16T04:15:54;1.55;;;1.35;;
17794;SDS011;9021;50.882;4.326;2022-10-16T04:18:19;4.03;;;1.63;;
17794;SDS011;9021;50.882;4.326;2022-10-16T04:20:45;2.17;;;1.30;;
17794;SDS011;9021;50.882;4.326;2022-10-16T04:23:10;2.35;;;1.27;;
17794;SDS011;9021;50.882;4.326;2022-10-16T04:25:36;5.63;;;1.35;;
17794;SDS011;9021;50.882;4.326;2022-10-16T04:28:02;3.40;;;1.35;;
17794;SDS011;9021;50.882;4.326;2022-10-16T04:30:28;3.53;;;1.50;;
17794;SDS011;9021;50.882;4.326;2022-10-16T04:32:53;3.72;;;1.30;;
17794;SDS011;9021;50.882;4.326;2022-10-16T04:35:19;3.47;;;1.38;;
17794;SDS011;9021;50.882;4.326;2022-10-16T04:37:46;1.52;;;1.08;;
17794;SDS011;9021;50.882;4.326;2022-10-16T04:40:12;6.05;;;1.40;;
17794;SDS011;9021;50.882;4.326;2022-10-16T04:42:38;3.58;;;1.40;;
17794;SDS011;9021;50.882;4.326;2022-10-16T04:45:04;3.75;;;1.20;;
17794;SDS011;9021;50.882;4.326;2022-10-16T04:47:30;2.80;;;1.20;;
17794;SDS011;9021;50.882;4.326;2022-10-16T04:49:56;2.38;;;1.20;;
17794;SDS011;9021;50.882;4.326;2022-10-16T04:52:22;4.53;;;1.35;;
17794;SDS011;9021;50.882;4.326;2022-10-16T04:54:50;3.13;;;1.17;;
17794;SDS011;9021;50.882;4.326;2022-10-16T04:57:15;6.18;;;1.38;;
17794;SDS011;9021;50.882;4.326;2022-10-16T04:59:41;2.25;;;1.25;;
17794;SDS011;9021;50.882;4.326;2022-10-16T05:02:07;3.40;;;1.40;;
17794;SDS011;9021;50.882;4.326;2022-10-16T05:04:33;2.15;;;1.33;;
17794;SDS011;9021;50.882;4.326;2022-10-16T05:06:58;2.08;;;1.40;;
17794;SDS011;9021;50.882;4.326;2022-10-16T05:09:24;4.18;;;1.52;;
17794;SDS011;9021;50.882;4.326;2022-10-16T05:11:49;2.75;;;1.35;;
17794;SDS011;9021;50.882;4.326;2022-10-16T05:14:15;3.88;;;1.40;;
17794;SDS011;9021;50.882;4.326;2022-10-16T05:16:41;4.32;;;1.50;;
17794;SDS011;9021;50.882;4.326;2022-10-16T05:19:06;3.90;;;1.70;;
17794;SDS011;9021;50.882;4.326;2022-10-16T05:21:32;4.07;;;1.48;;
17794;SDS011;9021;50.882;4.326;2022-10-16T05:23:58;3.05;;;2.25;;
17794;SDS011;9021;50.882;4.326;2022-10-16T05:26:23;2.88;;;1.50;;
17794;SDS011;9021;50.882;4.326;2022-10-16T05:28:49;4.10;;;1.60;;
17794;SDS011;9021;50.882;4.326;2022-10-16T05:31:14;5.10;;;1.70;;
17794;SDS011;9021;50.882;4.326;2022-10-16T05:33:40;2.88;;;1.65;;
17794;SDS011;9021;50.882;4.326;2022-10-16T05:36:07;2.72;;;1.73;;
17794;SDS011;9021;50.882;4.326;2022-10-16T05:38:34;2.42;;;1.58;;
17794;SDS011;9021;50.882;4.326;2022-10-16T05:41:01;3.92;;;1.63;;
17794;SDS011;9021;50.882;4.326;2022-10-16T05:43:27;5.22;;;2.08;;
17794;SDS011;9021;50.882;4.326;2022-10-16T05:45:56;3.40;;;1.80;;
17794;SDS011;9021;50.882;4.326;2022-10-16T05:48:23;3.05;;;1.73;;
17794;SDS011;9021;50.882;4.326;2022-10-16T05:50:55;6.32;;;1.92;;
17794;SDS011;9021;50.882;4.326;2022-10-16T05:53:22;4.93;;;1.90;;
17794;SDS011;9021;50.882;4.326;2022-10-16T05:55:53;2.53;;;1.70;;
17794;SDS011;9021;50.882;4.326;2022-10-16T05:58:20;4.85;;;2.03;;
17794;SDS011;9021;50.882;4.326;2022-10-16T06:01:09;3.45;;;1.77;;
17794;SDS011;9021;50.882;4.326;2022-10-16T06:03:34;2.53;;;1.80;;
17794;SDS011;9021;50.882;4.326;2022-10-16T06:06:10;4.00;;;1.98;;
17794;SDS011;9021;50.882;4.326;2022-10-16T06:08:42;2.50;;;1.88;;
17794;SDS011;9021;50.882;4.326;2022-10-16T06:11:09;3.40;;;1.90;;
17794;SDS011;9021;50.882;4.326;2022-10-16T06:13:37;4.60;;;2.08;;
17794;SDS011;9021;50.882;4.326;2022-10-16T06:16:04;3.25;;;2.15;;
17794;SDS011;9021;50.882;4.326;2022-10-16T06:18:30;4.32;;;1.88;;
17794;SDS011;9021;50.882;4.326;2022-10-16T06:20:56;4.70;;;1.90;;
17794;SDS011;9021;50.882;4.326;2022-10-16T06:23:22;2.72;;;1.45;;
17794;SDS011;9021;50.882;4.326;2022-10-16T06:25:48;5.95;;;1.98;;
17794;SDS011;9021;50.882;4.326;2022-10-16T06:28:13;3.47;;;1.83;;
17794;SDS011;9021;50.882;4.326;2022-10-16T06:30:40;8.65;;;2.28;;
17794;SDS011;9021;50.882;4.326;2022-10-16T06:33:05;3.88;;;1.67;;
17794;SDS011;9021;50.882;4.326;2022-10-16T06:35:31;2.83;;;1.70;;
17794;SDS011;9021;50.882;4.326;2022-10-16T06:37:57;4.03;;;1.80;;
17794;SDS011;9021;50.882;4.326;2022-10-16T06:40:23;4.03;;;1.77;;
17794;SDS011;9021;50.882;4.326;2022-10-16T06:42:49;2.30;;;1.85;;
17794;SDS011;9021;50.882;4.326;2022-10-16T06:45:16;5.10;;;2.17;;
17794;SDS011;9021;50.882;4.326;2022-10-16T06:47:42;2.38;;;1.65;;
17794;SDS011;9021;50.882;4.326;2022-10-16T06:50:08;3.97;;;2.00;;
17794;SDS011;9021;50.882;4.326;2022-10-16T06:52:34;2.97;;;1.73;;
17794;SDS011;9021;50.882;4.326;2022-10-16T06:57:25;3.72;;;1.50;;
17794;SDS011;9021;50.882;4.326;2022-10-16T06:59:51;7.43;;;1.70;;
17794;SDS011;9021;50.882;4.326;2022-10-16T07:02:17;6.70;;;1.73;;
17794;SDS011;9021;50.882;4.326;2022-10-16T07:04:42;7.30;;;1.58;;
17794;SDS011;9021;50.882;4.326;2022-10-16T07:07:08;2.40;;;1.75;;
17794;SDS011;9021;50.882;4.326;2022-10-16T07:09:34;2.08;;;1.40;;
17794;SDS011;9021;50.882;4.326;2022-10-16T07:11:59;4.60;;;1.52;;
17794;SDS011;9021;50.882;4.326;2022-10-16T07:14:25;3.38;;;1.52;;
17794;SDS011;9021;50.882;4.326;2022-10-16T07:16:51;4.63;;;1.40;;
17794;SDS011;9021;50.882;4.326;2022-10-16T07:19:16;4.45;;;1.50;;
17794;SDS011;9021;50.882;4.326;2022-10-16T07:21:43;3.10;;;1.55;;
17794;SDS011;9021;50.882;4.326;2022-10-16T07:24:13;6.10;;;1.48;;
17794;SDS011;9021;50.882;4.326;2022-10-16T07:26:40;4.50;;;1.50;;
17794;SDS011;9021;50.882;4.326;2022-10-16T07:29:11;3.22;;;1.08;;
17794;SDS011;9021;50.882;4.326;2022-10-16T07:31:39;4.78;;;1.25;;
17794;SDS011;9021;50.882;4.326;2022-10-16T07:34:05;1.63;;;1.00;;
17794;SDS011;9021;50.882;4.326;2022-10-16T07:36:30;3.72;;;1.10;;
17794;SDS011;9021;50.882;4.326;2022-10-16T07:38:56;3.25;;;1.20;;
17794;SDS011;9021;50.882;4.326;2022-10-16T07:41:22;5.03;;;1.20;;
17794;SDS011;9021;50.882;4.326;2022-10-16T07:43:48;1.75;;;1.13;;
17794;SDS011;9021;50.882;4.326;2022-10-16T07:46:15;3.58;;;1.20;;
17794;SDS011;9021;50.882;4.326;2022-10-16T07:48:42;3.38;;;1.10;;
17794;SDS011;9021;50.882;4.326;2022-10-16T07:51:11;2.95;;;1.00;;
17794;SDS011;9021;50.882;4.326;2022-10-16T07:53:38;3.45;;;1.23;;
17794;SDS011;9021;50.882;4.326;2022-10-16T07:56:04;1.65;;;0.93;;
17794;SDS011;9021;50.882;4.326;2022-10-16T07:58:31;2.20;;;1.02;;
17794;SDS011;9021;50.882;4.326;2022-10-16T08:00:58;2.03;;;1.30;;
17794;SDS011;9021;50.882;4.326;2022-10-16T08:03:24;3.28;;;1.10;;
17794;SDS011;9021;50.882;4.326;2022-10-16T08:05:50;3.17;;;1.13;;
17794;SDS011;9021;50.882;4.326;2022-10-16T08:10:42;3.92;;;1.10;;
17794;SDS011;9021;50.882;4.326;2022-10-16T08:13:08;2.33;;;0.90;;
17794;SDS011;9021;50.882;4.326;2022-10-16T08:18:03;2.97;;;1.00;;
17794;SDS011;9021;50.882;4.326;2022-10-16T08:20:30;4.72;;;1.20;;
17794;SDS011;9021;50.882;4.326;2022-10-16T08:22:57;5.38;;;1.20;;
17794;SDS011;9021;50.882;4.326;2022-10-16T08:25:23;4.07;;;1.27;;
17794;SDS011;9021;50.882;4.326;2022-10-16T08:27:50;2.97;;;1.60;;
17794;SDS011;9021;50.882;4.326;2022-10-16T08:32:42;2.63;;;1.17;;
17794;SDS011;9021;50.882;4.326;2022-10-16T08:37:34;5.50;;;1.42;;
17794;SDS011;9021;50.882;4.326;2022-10-16T08:45:32;2.17;;;1.08;;
17794;SDS011;9021;50.882;4.326;2022-10-16T08:50:30;4.43;;;1.10;;
17794;SDS011;9021;50.882;4.326;2022-10-16T08:52:57;3.80;;;1.13;;
17794;SDS011;9021;50.882;4.326;2022-10-16T08:58:12;4.57;;;1.52;;
17794;SDS011;9021;50.882;4.326;2022-10-16T09:00:40;3.63;;;1.00;;
17794;SDS011;9021;50.882;4.326;2022-10-16T09:03:16;4.50;;;1.52;;
17794;SDS011;9021;50.882;4.326;2022-10-16T09:13:57;2.50;;;0.70;;
17794;SDS011;9021;50.882;4.326;2022-10-16T09:19:00;3.72;;;0.90;;
17794;SDS011;9021;50.882;4.326;2022-10-16T09:21:31;4.82;;;0.93;;
17794;SDS011;9021;50.882;4.326;2022-10-16T09:24:18;5.22;;;1.30;;
17794;SDS011;9021;50.882;4.326;2022-10-16T09:26:45;5.10;;;0.85;;
17794;SDS011;9021;50.882;4.326;2022-10-16T09:29:12;5.00;;;0.90;;
17794;SDS011;9021;50.882;4.326;2022-10-16T09:31:39;5.43;;;1.00;;
17794;SDS011;9021;50.882;4.326;2022-10-16T09:34:05;4.28;;;1.02;;
17794;SDS011;9021;50.882;4.326;2022-10-16T09:36:39;3.22;;;0.90;;
17794;SDS011;9021;50.882;4.326;2022-10-16T09:39:08;5.82;;;1.02;;
17794;SDS011;9021;50.882;4.326;2022-10-16T09:41:37;5.40;;;0.95;;
17794;SDS011;9021;50.882;4.326;2022-10-16T09:47:10;4.97;;;1.02;;
17794;SDS011;9021;50.882;4.326;2022-10-16T09:49:42;4.90;;;1.23;;
17794;SDS011;9021;50.882;4.326;2022-10-16T09:52:16;2.90;;;0.77;;
17794;SDS011;9021;50.882;4.326;2022-10-16T09:57:16;3.92;;;1.00;;
17794;SDS011;9021;50.882;4.326;2022-10-16T09:59:46;3.40;;;0.90;;
17794;SDS011;9021;50.882;4.326;2022-10-16T10:02:13;3.75;;;0.90;;
17794;SDS011;9021;50.882;4.326;2022-10-16T10:04:51;2.67;;;0.88;;
17794;SDS011;9021;50.882;4.326;2022-10-16T10:07:32;3.63;;;1.00;;
17794;SDS011;9021;50.882;4.326;2022-10-16T10:10:03;3.58;;;0.80;;
17794;SDS011;9021;50.882;4.326;2022-10-16T10:12:30;2.88;;;0.75;;
17794;SDS011;9021;50.882;4.326;2022-10-16T10:15:02;10.20;;;1.42;;
17794;SDS011;9021;50.882;4.326;2022-10-16T10:17:31;6.63;;;1.13;;
17794;SDS011;9021;50.882;4.326;2022-10-16T10:22:41;5.43;;;1.20;;
17794;SDS011;9021;50.882;4.326;2022-10-16T10:30:17;2.15;;;0.70;;
17794;SDS011;9021;50.882;4.326;2022-10-16T10:38:53;2.83;;;0.70;;
17794;SDS011;9021;50.882;4.326;2022-10-16T10:55:19;2.83;;;0.82;;
17794;SDS011;9021;50.882;4.326;2022-10-16T11:00:40;2.08;;;0.80;;
17794;SDS011;9021;50.882;4.326;2022-10-16T11:08:35;2.92;;;0.93;;
17794;SDS011;9021;50.882;4.326;2022-10-16T11:13:48;4.05;;;0.80;;
17794;SDS011;9021;50.882;4.326;2022-10-16T11:21:29;3.40;;;0.80;;
17794;SDS011;9021;50.882;4.326;2022-10-16T11:24:05;3.63;;;0.95;;
17794;SDS011;9021;50.882;4.326;2022-10-16T11:26:47;4.88;;;1.15;;
17794;SDS011;9021;50.882;4.326;2022-10-16T11:29:17;3.58;;;0.93;;
17794;SDS011;9021;50.882;4.326;2022-10-16T11:31:53;5.05;;;0.82;;
17794;SDS011;9021;50.882;4.326;2022-10-16T11:34:27;2.67;;;0.60;;
17794;SDS011;9021;50.882;4.326;2022-10-16T11:37:05;4.53;;;0.80;;
17794;SDS011;9021;50.882;4.326;2022-10-16T11:39:36;3.38;;;0.63;;
17794;SDS011;9021;50.882;4.326;2022-10-16T11:42:11;3.63;;;1.00;;
17794;SDS011;9021;50.882;4.326;2022-10-16T11:44:52;1.65;;;0.60;;
17794;SDS011;9021;50.882;4.326;2022-10-16T11:47:34;1.60;;;0.50;;
17794;SDS011;9021;50.882;4.326;2022-10-16T11:50:17;2.47;;;0.70;;
17794;SDS011;9021;50.882;4.326;2022-10-16T11:55:41;3.70;;;0.70;;
17794;SDS011;9021;50.882;4.326;2022-10-16T11:58:18;3.22;;;0.60;;
17794;SDS011;9021;50.882;4.326;2022-10-16T12:06:17;3.95;;;1.00;;
17794;SDS011;9021;50.882;4.326;2022-10-16T12:08:49;3.85;;;1.25;;
17794;SDS011;9021;50.882;4.326;2022-10-16T12:11:22;3.13;;;1.17;;
17794;SDS011;9021;50.882;4.326;2022-10-16T12:16:55;3.47;;;0.77;;
17794;SDS011;9021;50.882;4.326;2022-10-16T12:19:26;2.28;;;0.90;;
17794;SDS011;9021;50.882;4.326;2022-10-16T12:21:56;2.03;;;0.60;;
17794;SDS011;9021;50.882;4.326;2022-10-16T12:27:04;2.45;;;0.80;;
17794;SDS011;9021;50.882;4.326;2022-10-16T12:36:53;3.17;;;0.70;;
17794;SDS011;9021;50.882;4.326;2022-10-16T12:39:21;2.55;;;0.70;;
17794;SDS011;9021;50.882;4.326;2022-10-16T12:41:48;2.95;;;0.90;;
17794;SDS011;9021;50.882;4.326;2022-10-16T12:44:26;3.35;;;0.73;;
17794;SDS011;9021;50.882;4.326;2022-10-16T12:46:58;3.00;;;0.63;;
17794;SDS011;9021;50.882;4.326;2022-10-16T12:51:57;2.10;;;0.82;;
17794;SDS011;9021;50.882;4.326;2022-10-16T12:57:10;2.28;;;0.88;;
17794;SDS011;9021;50.882;4.326;2022-10-16T13:02:45;1.77;;;0.73;;
17794;SDS011;9021;50.882;4.326;2022-10-16T13:10:54;1.75;;;0.80;;
17794;SDS011;9021;50.882;4.326;2022-10-16T13:16:16;4.63;;;1.00;;
17794;SDS011;9021;50.882;4.326;2022-10-16T13:24:54;3.65;;;0.95;;
17794;SDS011;9021;50.882;4.326;2022-10-16T13:27:26;4.53;;;1.02;;
17794;SDS011;9021;50.882;4.326;2022-10-16T13:30:11;4.72;;;1.00;;
17794;SDS011;9021;50.882;4.326;2022-10-16T13:32:40;3.17;;;1.10;;
17794;SDS011;9021;50.882;4.326;2022-10-16T13:35:21;4.28;;;0.93;;
17794;SDS011;9021;50.882;4.326;2022-10-16T13:38:02;3.92;;;0.90;;
17794;SDS011;9021;50.882;4.326;2022-10-16T13:40:29;1.55;;;0.80;;
17794;SDS011;9021;50.882;4.326;2022-10-16T13:42:54;3.90;;;1.45;;
17794;SDS011;9021;50.882;4.326;2022-10-16T13:45:22;2.47;;;0.73;;
17794;SDS011;9021;50.882;4.326;2022-10-16T13:48:00;4.50;;;1.83;;
17794;SDS011;9021;50.882;4.326;2022-10-16T13:50:30;3.83;;;1.80;;
17794;SDS011;9021;50.882;4.326;2022-10-16T13:53:05;4.55;;;1.70;;
17794;SDS011;9021;50.882;4.326;2022-10-16T13:58:17;4.68;;;1.45;;
17794;SDS011;9021;50.882;4.326;2022-10-16T14:01:15;6.90;;;1.90;;
17794;SDS011;9021;50.882;4.326;2022-10-16T14:03:48;8.07;;;1.15;;
17794;SDS011;9021;50.882;4.326;2022-10-16T14:06:15;3.55;;;1.30;;
17794;SDS011;9021;50.882;4.326;2022-10-16T14:08:48;3.00;;;1.35;;
17794;SDS011;9021;50.882;4.326;2022-10-16T14:11:20;5.05;;;1.95;;
17794;SDS011;9021;50.882;4.326;2022-10-16T14:13:48;4.57;;;1.30;;
17794;SDS011;9021;50.882;4.326;2022-10-16T14:16:18;4.95;;;1.50;;
17794;SDS011;9021;50.882;4.326;2022-10-16T14:18:50;3.72;;;0.98;;
17794;SDS011;9021;50.882;4.326;2022-10-16T14:21:20;5.45;;;1.13;;
17794;SDS011;9021;50.882;4.326;2022-10-16T14:23:46;4.15;;;0.90;;
17794;SDS011;9021;50.882;4.326;2022-10-16T14:26:12;1.23;;;0.60;;
17794;SDS011;9021;50.882;4.326;2022-10-16T14:28:41;8.68;;;1.20;;
17794;SDS011;9021;50.882;4.326;2022-10-16T14:33:53;4.50;;;0.80;;
17794;SDS011;9021;50.882;4.326;2022-10-16T14:36:19;1.85;;;0.73;;
17794;SDS011;9021;50.882;4.326;2022-10-16T14:41:21;3.38;;;1.00;;
17794;SDS011;9021;50.882;4.326;2022-10-16T14:43:51;3.88;;;1.33;;
17794;SDS011;9021;50.882;4.326;2022-10-16T14:46:20;1.70;;;0.68;;
17794;SDS011;9021;50.882;4.326;2022-10-16T14:48:51;1.98;;;0.75;;
17794;SDS011;9021;50.882;4.326;2022-10-16T14:51:24;2.85;;;1.20;;
17794;SDS011;9021;50.882;4.326;2022-10-16T14:53:51;3.60;;;1.30;;
17794;SDS011;9021;50.882;4.326;2022-10-16T14:56:18;2.85;;;1.10;;
17794;SDS011;9021;50.882;4.326;2022-10-16T14:58:48;4.15;;;2.55;;
17794;SDS011;9021;50.882;4.326;2022-10-16T15:01:15;2.85;;;1.30;;
17794;SDS011;9021;50.882;4.326;2022-10-16T15:03:41;2.92;;;1.30;;
17794;SDS011;9021;50.882;4.326;2022-10-16T15:06:14;2.63;;;1.00;;
17794;SDS011;9021;50.882;4.326;2022-10-16T15:08:40;4.93;;;1.83;;
17794;SDS011;9021;50.882;4.326;2022-10-16T15:11:11;3.78;;;1.98;;
17794;SDS011;9021;50.882;4.326;2022-10-16T15:13:39;7.20;;;3.35;;
17794;SDS011;9021;50.882;4.326;2022-10-16T15:16:07;5.32;;;2.42;;
17794;SDS011;9021;50.882;4.326;2022-10-16T15:18:36;4.53;;;1.45;;
17794;SDS011;9021;50.882;4.326;2022-10-16T15:21:02;2.78;;;1.20;;
17794;SDS011;9021;50.882;4.326;2022-10-16T15:23:27;4.07;;;1.20;;
17794;SDS011;9021;50.882;4.326;2022-10-16T15:25:54;2.67;;;0.95;;
17794;SDS011;9021;50.882;4.326;2022-10-16T15:28:21;5.88;;;2.13;;
17794;SDS011;9021;50.882;4.326;2022-10-16T15:30:51;5.72;;;1.30;;
17794;SDS011;9021;50.882;4.326;2022-10-16T15:33:19;5.85;;;1.48;;
17794;SDS011;9021;50.882;4.326;2022-10-16T15:35:51;4.97;;;2.50;;
17794;SDS011;9021;50.882;4.326;2022-10-16T15:38:17;4.43;;;1.60;;
17794;SDS011;9021;50.882;4.326;2022-10-16T15:40:45;4.13;;;1.27;;
17794;SDS011;9021;50.882;4.326;2022-10-16T15:43:11;3.95;;;1.20;;
17794;SDS011;9021;50.882;4.326;2022-10-16T15:45:37;6.63;;;1.45;;
17794;SDS011;9021;50.882;4.326;2022-10-16T15:48:03;9.65;;;3.58;;
17794;SDS011;9021;50.882;4.326;2022-10-16T15:50:29;4.35;;;2.00;;
17794;SDS011;9021;50.882;4.326;2022-10-16T15:52:55;3.53;;;1.73;;
17794;SDS011;9021;50.882;4.326;2022-10-16T15:55:21;4.68;;;1.70;;
17794;SDS011;9021;50.882;4.326;2022-10-16T15:57:47;2.65;;;1.70;;
17794;SDS011;9021;50.882;4.326;2022-10-16T16:00:16;6.95;;;1.77;;
17794;SDS011;9021;50.882;4.326;2022-10-16T16:02:49;3.40;;;1.33;;
17794;SDS011;9021;50.882;4.326;2022-10-16T16:05:19;4.68;;;1.30;;
17794;SDS011;9021;50.882;4.326;2022-10-16T16:07:48;3.00;;;1.38;;
17794;SDS011;9021;50.882;4.326;2022-10-16T16:10:14;3.45;;;1.30;;
17794;SDS011;9021;50.882;4.326;2022-10-16T16:12:40;3.83;;;1.42;;
17794;SDS011;9021;50.882;4.326;2022-10-16T16:15:06;5.03;;;1.98;;
17794;SDS011;9021;50.882;4.326;2022-10-16T16:17:33;8.27;;;4.30;;
17794;SDS011;9021;50.882;4.326;2022-10-16T16:19:59;5.03;;;1.98;;
17794;SDS011;9021;50.882;4.326;2022-10-16T16:24:52;2.58;;;1.13;;
17794;SDS011;9021;50.882;4.326;2022-10-16T16:27:17;5.90;;;1.80;;
17794;SDS011;9021;50.882;4.326;2022-10-16T16:29:44;4.57;;;1.63;;
17794;SDS011;9021;50.882;4.326;2022-10-16T16:34:36;5.00;;;2.08;;
17794;SDS011;9021;50.882;4.326;2022-10-16T16:37:02;7.97;;;2.22;;
17794;SDS011;9021;50.882;4.326;2022-10-16T16:39:30;8.80;;;2.10;;
17794;SDS011;9021;50.882;4.326;2022-10-16T16:41:59;6.90;;;2.50;;
17794;SDS011;9021;50.882;4.326;2022-10-16T16:44:24;6.40;;;2.00;;
17794;SDS011;9021;50.882;4.326;2022-10-16T16:46:51;5.10;;;1.98;;
17794;SDS011;9021;50.882;4.326;2022-10-16T16:49:16;4.00;;;1.50;;
17794;SDS011;9021;50.882;4.326;2022-10-16T16:51:42;6.55;;;1.50;;
17794;SDS011;9021;50.882;4.326;2022-10-16T16:54:08;4.90;;;1.98;;
17794;SDS011;9021;50.882;4.326;2022-10-16T16:56:35;6.22;;;1.83;;
17794;SDS011;9021;50.882;4.326;2022-10-16T17:01:27;9.15;;;2.00;;
17794;SDS011;9021;50.882;4.326;2022-10-16T17:03:54;4.43;;;2.55;;
17794;SDS011;9021;50.882;4.326;2022-10-16T17:06:22;5.78;;;3.00;;
17794;SDS011;9021;50.882;4.326;2022-10-16T17:08:50;9.10;;;3.33;;
17794;SDS011;9021;50.882;4.326;2022-10-16T17:11:16;15.45;;;6.43;;
17794;SDS011;9021;50.882;4.326;2022-10-16T17:13:44;7.30;;;2.40;;
17794;SDS011;9021;50.882;4.326;2022-10-16T17:16:16;7.20;;;2.38;;
17794;SDS011;9021;50.882;4.326;2022-10-16T17:18:42;11.05;;;2.75;;
17794;SDS011;9021;50.882;4.326;2022-10-16T17:21:08;7.90;;;2.50;;
17794;SDS011;9021;50.882;4.326;2022-10-16T17:23:35;9.10;;;2.55;;
17794;SDS011;9021;50.882;4.326;2022-10-16T17:28:35;7.32;;;4.30;;
17794;SDS011;9021;50.882;4.326;2022-10-16T17:31:06;10.40;;;3.88;;
17794;SDS011;9021;50.882;4.326;2022-10-16T17:33:33;8.68;;;4.85;;
17794;SDS011;9021;50.882;4.326;2022-10-16T17:35:59;10.45;;;4.72;;
17794;SDS011;9021;50.882;4.326;2022-10-16T17:38:25;10.05;;;4.65;;
17794;SDS011;9021;50.882;4.326;2022-10-16T17:40:50;5.80;;;3.00;;
17794;SDS011;9021;50.882;4.326;2022-10-16T17:43:16;9.30;;;2.95;;
17794;SDS011;9021;50.882;4.326;2022-10-16T17:45:42;5.75;;;2.42;;
17794;SDS011;9021;50.882;4.326;2022-10-16T17:48:07;6.00;;;2.90;;
17794;SDS011;9021;50.882;4.326;2022-10-16T17:50:33;4.03;;;2.60;;
17794;SDS011;9021;50.882;4.326;2022-10-16T17:52:59;5.93;;;2.83;;